createdAt,value
2022-08-18T00:01:16.814Z,65.43
2022-08-18T00:06:22.791Z,58.77
2022-08-18T00:11:25.472Z,59.87
2022-08-18T00:16:28.208Z,56.97
2022-08-18T00:21:32.161Z,54.93
2022-08-18T00:26:36.993Z,59.03
2022-08-18T00:31:39.814Z,60.43
2022-08-18T00:36:43.940Z,56.60
2022-08-18T00:41:46.800Z,57.37
2022-08-18T00:46:49.869Z,62.23
2022-08-18T00:51:54.279Z,63.43
2022-08-18T00:57:00.288Z,60.73
2022-08-18T01:02:07.981Z,61.10
2022-08-18T01:07:20.338Z,60.70
2022-08-18T01:12:45.051Z,58.77
2022-08-18T01:18:03.600Z,58.53
2022-08-18T01:23:13.941Z,64.43
2022-08-18T01:28:20.628Z,67.87
2022-08-18T01:33:30.198Z,66.50
2022-08-18T01:38:34.437Z,69.40
2022-08-18T01:43:39.680Z,66.63
2022-08-18T01:48:43.126Z,63.43
2022-08-18T01:53:48.557Z,63.10
2022-08-18T01:58:51.255Z,59.97
2022-08-18T02:04:23.272Z,69.20
2022-08-18T02:09:24.894Z,64.63
2022-08-18T02:14:31.159Z,73.47
2022-08-18T02:19:39.063Z,67.37
2022-08-18T02:24:43.951Z,75.40
2022-08-18T02:29:46.733Z,66.43
2022-08-18T02:34:49.801Z,63.97
2022-08-18T02:39:55.453Z,64.33
2022-08-18T02:44:59.413Z,62.83
2022-08-18T02:50:02.093Z,64.53
2022-08-18T02:55:07.576Z,62.10
2022-08-18T03:00:12.795Z,65.43
2022-08-18T03:05:16.409Z,56.47
2022-08-18T03:10:33.200Z,57.23
2022-08-18T03:15:39.392Z,63.30
2022-08-18T03:20:44.155Z,64.47
2022-08-18T03:25:51.493Z,56.97
2022-08-18T03:30:54.546Z,57.87
2022-08-18T03:36:04.273Z,57.50
2022-08-18T03:41:08.861Z,61.13
2022-08-18T03:46:14.580Z,56.43
2022-08-18T03:51:20.056Z,54.87
2022-08-18T03:56:26.709Z,64.30
2022-08-18T04:01:32.740Z,57.83
2022-08-18T04:06:39.224Z,58.93
2022-08-18T04:11:44.815Z,63.80
2022-08-18T04:16:49.168Z,67.20
2022-08-18T04:21:53.883Z,66.87
2022-08-18T04:26:59.492Z,63.57
2022-08-18T04:32:03.938Z,72.77
2022-08-18T04:37:08.822Z,66.80
2022-08-18T04:42:12.902Z,66.00
2022-08-18T04:47:15.652Z,67.53
2022-08-18T04:52:40.576Z,70.90
2022-08-18T04:57:45.562Z,86.63
2022-08-18T05:02:49.339Z,75.47
2022-08-18T05:07:52.143Z,79.23
2022-08-18T05:12:58.820Z,93.70
2022-08-18T05:18:04.586Z,85.63
2022-08-18T05:23:09.857Z,88.30
2022-08-18T05:28:14.438Z,92.10
2022-08-18T05:33:17.637Z,85.83
2022-08-18T05:38:34.934Z,81.47
2022-08-18T05:43:56.655Z,84.50
2022-08-18T05:48:59.385Z,72.00
2022-08-18T05:54:21.324Z,74.57
2022-08-18T05:59:32.405Z,75.43
2022-08-18T06:04:45.266Z,75.27
2022-08-18T06:09:51.580Z,78.47
2022-08-18T06:15:05.845Z,79.53
2022-08-18T06:20:21.083Z,71.03
2022-08-18T06:25:31.473Z,72.43
2022-08-18T06:30:57.059Z,76.43
2022-08-18T06:36:05.147Z,65.73
2022-08-18T06:41:40.360Z,58.47
2022-08-18T06:46:46.593Z,52.97
2022-08-18T06:51:49.444Z,48.10
2022-08-18T06:56:55.521Z,54.20
2022-08-18T07:02:07.154Z,44.60
2022-08-18T07:07:20.510Z,44.40
2022-08-18T07:12:32.710Z,38.93
2022-08-18T07:17:43.486Z,34.70
2022-08-18T07:22:55.681Z,29.80
2022-08-18T07:28:01.809Z,28.77
2022-08-18T07:33:16.411Z,27.50
2022-08-18T07:38:44.273Z,28.53
2022-08-18T07:43:57.322Z,28.17
2022-08-18T07:49:01.956Z,26.97
2022-08-18T07:54:37.762Z,26.67
2022-08-18T07:59:48.787Z,32.03
2022-08-18T08:05:07.175Z,25.13
2022-08-18T08:10:25.325Z,27.30
2022-08-18T08:15:42.404Z,20.07
2022-08-18T08:20:52.645Z,19.20
2022-08-18T08:26:04.101Z,25.27
2022-08-18T08:36:40.108Z,19.60
2022-08-18T08:41:49.129Z,18.57
2022-08-18T08:46:58.858Z,21.53
2022-08-18T08:52:12.395Z,18.07
2022-08-18T08:57:18.672Z,17.27
2022-08-18T09:02:47.391Z,15.80
2022-08-18T09:08:22.619Z,14.93
2022-08-18T09:13:48.977Z,11.27
2022-08-18T09:19:07.459Z,10.80
2022-08-18T09:24:23.418Z,11.50
2022-08-18T09:29:46.776Z,11.43
2022-08-18T09:35:01.032Z,11.17
2022-08-18T09:41:01.210Z,12.07
2022-08-18T09:50:37.284Z,15.30
2022-08-18T09:51:40.114Z,12.03
2022-08-18T09:57:19.511Z,10.23
2022-08-18T10:03:13.721Z,17.43
2022-08-18T10:08:55.446Z,13.03
2022-08-18T10:14:14.452Z,13.30
2022-08-18T10:19:39.487Z,13.03
2022-08-18T10:25:14.159Z,14.03
2022-08-18T10:30:56.574Z,12.60
2022-08-18T10:36:03.133Z,12.73
2022-08-18T10:41:10.200Z,12.23
2022-08-18T10:46:25.077Z,11.30
2022-08-18T10:57:15.310Z,11.13
2022-08-18T11:02:39.960Z,9.80
2022-08-18T11:07:53.526Z,12.80
2022-08-18T11:13:09.835Z,10.03
2022-08-18T11:18:30.186Z,11.60
2022-08-18T11:23:33.545Z,8.00
2022-08-18T11:28:45.061Z,7.27
2022-08-18T11:33:52.461Z,6.40
2022-08-18T11:38:56.376Z,6.40
2022-08-18T11:44:05.689Z,6.53
2022-08-18T11:49:24.153Z,5.70
2022-08-18T11:54:39.162Z,6.20
2022-08-18T12:05:17.883Z,6.53
2022-08-18T12:10:26.422Z,5.60
2022-08-18T12:15:44.709Z,4.83
2022-08-18T12:20:52.913Z,4.63
2022-08-18T12:25:55.596Z,5.40
2022-08-18T12:30:58.274Z,4.60
2022-08-18T12:41:25.721Z,4.53
2022-08-18T12:46:28.871Z,5.20
2022-08-18T12:51:34.858Z,4.37
2022-08-18T12:56:38.559Z,4.87
2022-08-18T13:01:42.311Z,5.93
2022-08-18T13:07:00.378Z,6.27
2022-08-18T13:12:08.957Z,4.57
2022-08-18T13:17:28.929Z,4.57
2022-08-18T13:22:37.048Z,5.77
2022-08-18T13:27:45.208Z,5.43
2022-08-18T13:32:59.156Z,4.47
2022-08-18T13:38:14.336Z,4.07
2022-08-18T13:43:34.263Z,4.43
2022-08-18T13:48:41.466Z,4.57
2022-08-18T13:53:58.872Z,7.23
2022-08-18T13:59:09.162Z,7.13
2022-08-18T14:04:21.103Z,4.87
2022-08-18T14:09:35.978Z,4.20
2022-08-18T14:14:44.093Z,3.90
2022-08-18T14:20:04.697Z,4.90
2022-08-18T14:25:26.893Z,5.63
2022-08-18T14:30:29.600Z,8.30
2022-08-18T14:36:03.732Z,7.80
2022-08-18T14:41:03.248Z,6.30
2022-08-18T14:46:08.962Z,4.13
2022-08-18T14:51:14.776Z,5.27
2022-08-18T14:56:22.197Z,5.23
2022-08-18T15:01:28.043Z,3.97
2022-08-18T15:06:45.368Z,3.57
2022-08-18T15:12:01.922Z,3.47
2022-08-18T15:17:11.849Z,4.13
2022-08-18T15:22:33.967Z,4.57
2022-08-18T15:27:42.865Z,4.70
2022-08-18T15:32:49.890Z,4.97
2022-08-18T15:37:55.156Z,3.80
2022-08-18T15:43:02.313Z,4.40
2022-08-18T15:48:06.492Z,3.70
2022-08-18T15:53:12.764Z,3.63
2022-08-18T15:58:22.045Z,4.33
2022-08-18T16:03:25.663Z,4.00
2022-08-18T16:08:28.924Z,5.20
2022-08-18T16:13:32.915Z,5.80
2022-08-18T16:18:36.645Z,5.00
2022-08-18T16:23:41.021Z,4.60
2022-08-18T16:28:50.939Z,4.33
2022-08-18T16:33:54.724Z,5.07
2022-08-18T16:38:58.357Z,6.03
2022-08-18T16:44:02.765Z,5.13
2022-08-18T16:49:08.017Z,4.40
2022-08-18T16:54:10.904Z,5.50
2022-08-18T16:59:32.435Z,10.50
2022-08-18T17:04:35.184Z,4.77
2022-08-18T17:09:37.995Z,4.20
2022-08-18T17:14:42.195Z,4.60
2022-08-18T17:19:46.791Z,6.10
2022-08-18T17:24:50.598Z,4.93
2022-08-18T17:30:01.586Z,8.77
2022-08-18T17:35:09.127Z,4.90
2022-08-18T17:40:17.804Z,5.27
2022-08-18T17:45:24.557Z,7.50
2022-08-18T17:50:51.584Z,5.70
2022-08-18T17:56:00.822Z,6.23
2022-08-18T18:01:05.232Z,5.73
2022-08-18T18:06:12.228Z,8.93
2022-08-18T18:11:15.302Z,6.90
2022-08-18T18:16:27.283Z,8.10
2022-08-18T18:22:00.192Z,6.10
2022-08-18T18:27:27.174Z,6.00
2022-08-18T18:32:34.467Z,6.97
2022-08-18T18:37:47.385Z,5.80
2022-08-18T18:42:50.548Z,8.60
2022-08-18T18:48:04.699Z,7.10
2022-08-18T18:53:21.322Z,7.03
2022-08-18T18:58:32.851Z,5.83
2022-08-18T19:03:43.592Z,7.13
2022-08-18T19:08:57.852Z,5.70
2022-08-18T19:14:07.475Z,5.70
2022-08-18T19:19:37.020Z,8.77
2022-08-18T19:24:47.360Z,6.67
2022-08-18T19:29:53.433Z,6.90
2022-08-18T19:34:58.529Z,9.70
2022-08-18T19:40:10.894Z,5.60
2022-08-18T19:45:24.771Z,6.97
2022-08-18T19:50:35.063Z,9.47
2022-08-18T19:55:53.924Z,5.77
2022-08-18T20:01:01.286Z,10.00
2022-08-18T20:06:34.574Z,10.20
2022-08-18T20:11:57.764Z,8.83
2022-08-18T20:17:21.351Z,9.13
2022-08-18T20:22:32.797Z,14.57
2022-08-18T20:27:39.497Z,14.17
2022-08-18T20:32:42.960Z,7.40
2022-08-18T20:37:47.012Z,7.40
2022-08-18T20:42:55.857Z,14.33
2022-08-18T20:48:26.447Z,9.57
2022-08-18T20:53:50.244Z,9.40
2022-08-18T20:58:57.743Z,13.57
2022-08-18T21:04:00.645Z,7.90
2022-08-18T21:09:05.952Z,10.93
2022-08-18T21:14:13.576Z,10.10
2022-08-18T21:19:23.464Z,11.53
2022-08-18T21:24:33.319Z,11.40
2022-08-18T21:29:46.850Z,10.07
2022-08-18T21:34:53.790Z,11.23
2022-08-18T21:40:00.624Z,9.67
2022-08-18T21:45:09.496Z,11.00
2022-08-18T21:50:15.683Z,14.67
2022-08-18T21:55:27.113Z,10.50
2022-08-18T22:00:31.765Z,9.73
2022-08-18T22:05:59.057Z,20.07
2022-08-18T22:11:59.943Z,8.90
2022-08-18T22:17:29.819Z,11.77
2022-08-18T22:23:07.753Z,9.73
2022-08-18T22:28:11.936Z,7.97
2022-08-18T22:33:14.671Z,10.73
2022-08-18T22:38:19.017Z,9.63
2022-08-18T22:43:27.826Z,9.43
2022-08-18T22:48:30.434Z,10.07
2022-08-18T22:53:33.113Z,14.53
2022-08-18T22:58:37.439Z,10.20
2022-08-18T23:03:42.595Z,15.10
2022-08-18T23:08:55.153Z,13.40
2022-08-18T23:14:01.975Z,12.67
2022-08-18T23:19:05.374Z,9.53
2022-08-18T23:24:09.913Z,10.30
2022-08-18T23:29:14.351Z,11.77
2022-08-18T23:34:20.344Z,10.53
2022-08-18T23:39:23.577Z,11.57
2022-08-18T23:44:28.224Z,17.77
2022-08-18T23:49:31.447Z,13.83
2022-08-18T23:54:36.333Z,13.03
2022-08-18T23:59:40.460Z,11.43
